Time,TemperatureF,DewpointF,PressureIn,WindDirection,WindDirectionDegrees,WindSpeedMPH,WindSpeedGustMPH,Humidity,HourlyPrecipIn,Conditions,Clouds,dailyrainin,SoftwareType,DateUTC
2013-06-13 00:09:00,54.5,45.3,30.02,NNW,347,0.0,0.0,71,0.00,,,-99.99,Weather View 32 v60,2013-06-13 07:09:00,
2013-06-13 00:19:00,54.1,44.9,30.02,NNE,13,0.0,0.0,71,0.00,,,-99.99,Weather View 32 v60,2013-06-13 07:19:00,
2013-06-13 00:29:00,54.1,44.6,30.02,NNW,343,0.0,7.0,70,0.00,,,-99.99,Weather View 32 v60,2013-06-13 07:29:00,
2013-06-13 00:39:00,54.3,44.3,30.02,SW,221,0.0,7.0,69,0.00,,,-99.99,Weather View 32 v60,2013-06-13 07:39:00,
2013-06-13 00:50:00,54.5,44.5,30.02,WNW,301,0.0,7.0,69,0.00,,,-99.99,Weather View 32 v60,2013-06-13 07:50:00,
2013-06-13 01:00:00,54.1,44.6,30.02,NNW,332,0.0,7.0,70,0.00,,,-99.99,Weather View 32 v60,2013-06-13 08:00:00,
2013-06-13 01:09:00,53.8,44.6,30.02,ESE,119,0.0,7.0,71,0.00,,,-99.99,Weather View 32 v60,2013-06-13 08:09:00,
2013-06-13 01:19:00,53.6,45.1,30.02,North,10,0.0,7.0,73,0.00,,,-99.99,Weather View 32 v60,2013-06-13 08:19:00,
2013-06-13 01:29:00,53.4,46.0,30.02,NNE,29,0.0,5.0,76,0.00,,,-99.99,Weather View 32 v60,2013-06-13 08:29:00,
2013-06-13 01:39:00,53.8,47.1,30.02,NNE,28,0.0,5.0,78,0.00,,,-99.99,Weather View 32 v60,2013-06-13 08:39:00,
2013-06-13 01:45:00,53.8,47.1,30.02,NNE,28,0.0,5.0,78,0.00,,,-99.99,Weather View 32 v60,2013-06-13 08:45:00,
2013-06-13 01:59:00,53.4,47.1,30.02,NNE,31,0.0,0.0,79,0.00,,,-99.99,Weather View 32 v60,2013-06-13 08:59:00,
2013-06-13 02:09:00,53.2,46.9,30.02,West,271,0.0,0.0,79,0.00,,,-99.99,Weather View 32 v60,2013-06-13 09:09:00,
2013-06-13 02:19:00,52.9,46.5,30.02,North,9,0.0,0.0,79,0.00,,,-99.99,Weather View 32 v60,2013-06-13 09:19:00,
2013-06-13 02:29:00,52.9,46.5,30.02,NNE,22,0.0,0.0,79,0.00,,,-99.99,Weather View 32 v60,2013-06-13 09:29:00,
2013-06-13 02:39:00,52.7,46.7,30.02,NNE,22,0.0,0.0,80,0.00,,,-99.99,Weather View 32 v60,2013-06-13 09:39:00,
2013-06-13 02:45:00,52.7,46.7,30.02,NNE,22,0.0,0.0,80,0.00,,,-99.99,Weather View 32 v60,2013-06-13 09:45:00,
2013-06-13 03:00:00,52.2,46.2,30.02,North,356,0.0,0.0,80,0.00,,,-99.99,Weather View 32 v60,2013-06-13 10:00:00,
2013-06-13 03:09:00,51.8,45.8,30.02,North,356,0.0,0.0,80,0.00,,,-99.99,Weather View 32 v60,2013-06-13 10:09:00,
2013-06-13 03:19:00,51.8,46.1,30.02,East,86,0.0,0.0,81,0.00,,,-99.99,Weather View 32 v60,2013-06-13 10:19:00,
2013-06-13 03:29:00,51.8,46.5,30.02,East,84,0.0,0.0,82,0.00,,,-99.99,Weather View 32 v60,2013-06-13 10:29:00,
2013-06-13 03:39:00,51.6,46.3,30.05,East,80,0.0,0.0,82,0.00,,,-99.99,Weather View 32 v60,2013-06-13 10:39:00,
2013-06-13 03:46:00,51.6,46.3,30.05,East,80,0.0,0.0,82,0.00,,,-99.99,Weather View 32 v60,2013-06-13 10:46:00,
2013-06-13 03:59:00,50.9,45.3,30.05,East,80,0.0,0.0,81,0.00,,,-99.99,Weather View 32 v60,2013-06-13 10:59:00,
2013-06-13 04:09:00,50.5,44.9,30.05,East,80,0.0,0.0,81,0.00,,,-99.99,Weather View 32 v60,2013-06-13 11:09:00,
2013-06-13 04:20:00,50.4,45.1,30.05,East,80,0.0,0.0,82,0.00,,,-99.99,Weather View 32 v60,2013-06-13 11:20:00,
2013-06-13 04:29:00,50.0,44.7,30.05,East,80,0.0,0.0,82,0.00,,,-99.99,Weather View 32 v60,2013-06-13 11:29:00,
2013-06-13 04:39:00,49.8,44.5,30.05,East,80,0.0,0.0,82,0.00,,,-99.99,Weather View 32 v60,2013-06-13 11:39:00,
2013-06-13 04:46:00,49.8,44.5,30.05,East,80,0.0,0.0,82,0.00,,,-99.99,Weather View 32 v60,2013-06-13 11:46:00,
2013-06-13 05:00:00,49.6,44.7,30.05,East,80,0.0,0.0,83,0.00,,,-99.99,Weather View 32 v60,2013-06-13 12:00:00,
2013-06-13 05:09:00,49.8,45.2,30.05,East,80,0.0,0.0,84,0.00,,,-99.99,Weather View 32 v60,2013-06-13 12:09:00,
2013-06-13 05:19:00,49.6,45.0,30.05,East,80,0.0,0.0,84,0.00,,,-99.99,Weather View 32 v60,2013-06-13 12:19:00,
2013-06-13 05:30:00,49.5,44.8,30.05,East,80,0.0,0.0,84,0.00,,,-99.99,Weather View 32 v60,2013-06-13 12:30:00,
2013-06-13 05:39:00,49.3,45.0,30.05,East,80,0.0,0.0,85,0.00,,,-99.99,Weather View 32 v60,2013-06-13 12:39:00,
2013-06-13 05:47:00,49.3,45.0,30.05,East,80,0.0,0.0,85,0.00,,,-99.99,Weather View 32 v60,2013-06-13 12:47:00,
2013-06-13 05:59:00,49.1,44.8,30.05,East,80,0.0,0.0,85,0.00,,,-99.99,Weather View 32 v60,2013-06-13 12:59:00,
2013-06-13 06:09:00,49.3,45.0,30.08,East,80,0.0,0.0,85,0.00,,,-99.99,Weather View 32 v60,2013-06-13 13:09:00,
2013-06-13 06:19:00,50.2,46.1,30.08,East,80,0.0,0.0,86,0.00,,,-99.99,Weather View 32 v60,2013-06-13 13:19:00,
2013-06-13 06:29:00,50.7,46.7,30.08,ENE,78,0.0,0.0,86,0.00,,,-99.99,Weather View 32 v60,2013-06-13 13:29:00,
2013-06-13 06:39:00,51.3,47.2,30.08,East,80,0.0,0.0,86,0.00,,,-99.99,Weather View 32 v60,2013-06-13 13:39:00,
2013-06-13 06:47:00,51.3,47.2,30.08,East,80,0.0,0.0,86,0.00,,,-99.99,Weather View 32 v60,2013-06-13 13:47:00,
2013-06-13 06:59:00,52.5,48.1,30.08,East,80,0.0,0.0,85,0.00,,,-99.99,Weather View 32 v60,2013-06-13 13:59:00,
2013-06-13 07:09:00,53.2,48.5,30.08,ESE,104,0.0,0.0,84,0.00,,,-99.99,Weather View 32 v60,2013-06-13 14:09:00,
2013-06-13 07:19:00,54.5,48.8,30.08,ENE,76,0.0,0.0,81,0.00,,,-99.99,Weather View 32 v60,2013-06-13 14:19:00,
2013-06-13 07:29:00,55.6,49.5,30.08,ENE,70,0.0,0.0,80,0.00,,,-99.99,Weather View 32 v60,2013-06-13 14:29:00,
2013-06-13 07:39:00,56.1,47.9,30.08,SE,124,0.0,0.0,74,0.00,,,-99.99,Weather View 32 v60,2013-06-13 14:39:00,
2013-06-13 07:48:00,56.1,47.9,30.08,SE,124,0.0,0.0,74,0.00,,,-99.99,Weather View 32 v60,2013-06-13 14:48:00,
2013-06-13 07:59:00,57.0,47.3,30.08,West,279,0.0,0.0,70,0.00,,,-99.99,Weather View 32 v60,2013-06-13 14:59:00,
2013-06-13 08:09:00,57.6,46.3,30.08,West,261,0.0,0.0,66,0.00,,,-99.99,Weather View 32 v60,2013-06-13 15:09:00,
2013-06-13 08:20:00,57.7,45.2,30.08,NNE,25,0.0,0.0,63,0.00,,,-99.99,Weather View 32 v60,2013-06-13 15:20:00,
2013-06-13 08:29:00,58.5,46.3,30.11,ENE,75,0.0,0.0,64,0.00,,,-99.99,Weather View 32 v60,2013-06-13 15:29:00,
2013-06-13 08:39:00,59.0,45.1,30.11,WSW,248,0.0,0.0,60,0.00,,,-99.99,Weather View 32 v60,2013-06-13 15:39:00,
2013-06-13 08:48:00,59.0,45.1,30.11,WSW,248,0.0,0.0,60,0.00,,,-99.99,Weather View 32 v60,2013-06-13 15:48:00,
2013-06-13 09:00:00,60.8,45.0,30.11,SW,218,0.0,0.0,56,0.00,,,-99.99,Weather View 32 v60,2013-06-13 16:00:00,
2013-06-13 09:09:00,61.7,45.3,30.11,WSW,252,0.0,0.0,55,0.00,,,-99.99,Weather View 32 v60,2013-06-13 16:09:00,
2013-06-13 09:19:00,62.4,44.5,30.11,NW,305,0.0,0.0,52,0.00,,,-99.99,Weather View 32 v60,2013-06-13 16:19:00,
2013-06-13 09:29:00,63.7,44.6,30.11,ENE,66,0.0,0.0,50,0.00,,,-99.99,Weather View 32 v60,2013-06-13 16:29:00,
2013-06-13 09:39:00,64.8,44.6,30.11,SSW,202,0.0,0.0,48,0.00,,,-99.99,Weather View 32 v60,2013-06-13 16:39:00,
2013-06-13 09:49:00,64.8,44.6,30.11,SSW,202,0.0,0.0,48,0.00,,,-99.99,Weather View 32 v60,2013-06-13 16:49:00,
2013-06-13 09:59:00,66.9,43.6,30.11,ENE,57,0.0,0.0,43,0.00,,,-99.99,Weather View 32 v60,2013-06-13 16:59:00,
2013-06-13 10:09:00,67.8,44.4,30.11,West,276,0.0,0.0,43,0.00,,,-99.99,Weather View 32 v60,2013-06-13 17:09:00,
2013-06-13 10:20:00,69.3,42.5,30.11,West,273,0.0,0.0,38,0.00,,,-99.99,Weather View 32 v60,2013-06-13 17:20:00,
2013-06-13 10:29:00,70.2,42.6,30.11,NW,310,0.0,0.0,37,0.00,,,-99.99,Weather View 32 v60,2013-06-13 17:29:00,
2013-06-13 10:39:00,70.9,41.8,30.11,NNE,24,0.0,0.0,35,0.00,,,-99.99,Weather View 32 v60,2013-06-13 17:39:00,
2013-06-13 10:49:00,70.9,41.8,30.11,NNE,24,0.0,0.0,35,0.00,,,-99.99,Weather View 32 v60,2013-06-13 17:49:00,
2013-06-13 10:59:00,73.2,42.3,30.08,NNE,21,0.0,0.0,33,0.00,,,-99.99,Weather View 32 v60,2013-06-13 17:59:00,
2013-06-13 11:09:00,74.1,42.3,30.11,ENE,74,0.0,0.0,32,0.00,,,-99.99,Weather View 32 v60,2013-06-13 18:09:00,
2013-06-13 11:19:00,74.5,42.6,30.11,West,271,0.0,3.0,32,0.00,,,-99.99,Weather View 32 v60,2013-06-13 18:19:00,
2013-06-13 11:29:00,76.1,43.2,30.08,NNW,343,0.0,5.0,31,0.00,,,-99.99,Weather View 32 v60,2013-06-13 18:29:00,
2013-06-13 11:39:00,76.8,41.2,30.08,ENE,73,0.0,5.0,28,0.00,,,-99.99,Weather View 32 v60,2013-06-13 18:39:00,
2013-06-13 11:50:00,78.1,42.2,30.08,WSW,254,0.0,6.0,28,0.00,,,-99.99,Weather View 32 v60,2013-06-13 18:50:00,
2013-06-13 11:59:00,79.3,42.4,30.08,SSW,211,0.0,6.0,27,0.00,,,-99.99,Weather View 32 v60,2013-06-13 18:59:00,
2013-06-13 12:09:00,80.1,41.0,30.08,SSW,201,0.0,6.0,25,0.00,,,-99.99,Weather View 32 v60,2013-06-13 19:09:00,
2013-06-13 12:19:00,80.6,40.4,30.08,NW,325,0.0,6.0,24,0.00,,,-99.99,Weather View 32 v60,2013-06-13 19:19:00,
2013-06-13 12:29:00,81.7,42.3,30.08,WNW,299,0.0,6.0,25,0.00,,,-99.99,Weather View 32 v60,2013-06-13 19:29:00,
2013-06-13 12:39:00,82.4,42.9,30.08,SW,234,0.0,6.0,25,0.00,,,-99.99,Weather View 32 v60,2013-06-13 19:39:00,
2013-06-13 12:49:00,82.6,40.9,30.08,West,270,0.0,6.0,23,0.00,,,-99.99,Weather View 32 v60,2013-06-13 19:49:00,
2013-06-13 12:59:00,82.6,42.0,30.08,NW,315,0.0,7.0,24,0.00,,,-99.99,Weather View 32 v60,2013-06-13 19:59:00,
2013-06-13 13:09:00,83.3,42.6,30.08,WSW,251,0.0,8.0,24,0.00,,,-99.99,Weather View 32 v60,2013-06-13 20:09:00,
2013-06-13 13:19:00,84.0,42.1,30.08,SW,214,0.0,8.0,23,0.00,,,-99.99,Weather View 32 v60,2013-06-13 20:19:00,
2013-06-13 13:29:00,83.8,42.0,30.08,West,270,0.0,8.0,23,0.00,,,-99.99,Weather View 32 v60,2013-06-13 20:29:00,
2013-06-13 13:39:00,84.4,42.4,30.08,West,278,0.0,8.0,23,0.00,,,-99.99,Weather View 32 v60,2013-06-13 20:39:00,
2013-06-13 13:49:00,84.7,42.7,30.08,SW,220,8.0,8.0,23,0.00,,,-99.99,Weather View 32 v60,2013-06-13 20:49:00,
2013-06-13 13:59:00,84.9,42.9,30.08,WSW,253,0.0,8.0,23,0.00,,,-99.99,Weather View 32 v60,2013-06-13 20:59:00,
2013-06-13 14:09:00,85.3,43.2,30.08,SW,229,0.0,8.0,23,0.00,,,-99.99,Weather View 32 v60,2013-06-13 21:09:00,
2013-06-13 14:19:00,84.6,42.6,30.08,WSW,258,3.0,13.0,23,0.00,,,-99.99,Weather View 32 v60,2013-06-13 21:19:00,
2013-06-13 14:29:00,84.6,43.7,30.05,WNW,290,0.0,13.0,24,0.00,,,-99.99,Weather View 32 v60,2013-06-13 21:29:00,
2013-06-13 14:39:00,84.7,43.8,30.05,WSW,256,8.0,13.0,24,0.00,,,-99.99,Weather View 32 v60,2013-06-13 21:39:00,
2013-06-13 14:49:00,84.4,42.4,30.05,West,271,0.0,13.0,23,0.00,,,-99.99,Weather View 32 v60,2013-06-13 21:49:00,
2013-06-13 14:59:00,83.8,42.0,30.05,NW,323,4.0,13.0,23,0.00,,,-99.99,Weather View 32 v60,2013-06-13 21:59:00,
2013-06-13 15:09:00,83.8,42.0,30.05,SW,220,0.0,13.0,23,0.00,,,-99.99,Weather View 32 v60,2013-06-13 22:09:00,
2013-06-13 15:19:00,84.6,42.6,30.05,WNW,294,0.0,11.0,23,0.00,,,-99.99,Weather View 32 v60,2013-06-13 22:19:00,
2013-06-13 15:29:00,83.8,40.8,30.05,WSW,241,0.0,11.0,22,0.00,,,-99.99,Weather View 32 v60,2013-06-13 22:29:00,
2013-06-13 15:39:00,84.0,41.0,30.05,NNW,342,4.0,11.0,22,0.00,,,-99.99,Weather View 32 v60,2013-06-13 22:39:00,
2013-06-13 15:49:00,83.8,40.8,30.05,NW,308,0.0,11.0,22,0.00,,,-99.99,Weather View 32 v60,2013-06-13 22:49:00,
2013-06-13 15:59:00,83.7,41.8,30.05,West,262,4.0,12.0,23,0.00,,,-99.99,Weather View 32 v60,2013-06-13 22:59:00,
2013-06-13 16:09:00,83.1,41.4,30.05,South,186,0.0,12.0,23,0.00,,,-99.99,Weather View 32 v60,2013-06-13 23:09:00,
2013-06-13 16:19:00,82.0,40.5,30.05,West,268,0.0,12.0,23,0.00,,,-99.99,Weather View 32 v60,2013-06-13 23:19:00,
2013-06-13 16:29:00,81.7,40.2,30.05,WNW,295,5.0,12.0,23,0.00,,,-99.99,Weather View 32 v60,2013-06-13 23:29:00,
2013-06-13 16:39:00,81.5,41.1,30.02,SW,234,0.0,12.0,24,0.00,,,-99.99,Weather View 32 v60,2013-06-13 23:39:00,
2013-06-13 16:49:00,81.7,39.0,30.02,NW,324,0.0,12.0,22,0.00,,,-99.99,Weather View 32 v60,2013-06-13 23:49:00,
2013-06-13 16:59:00,81.0,39.6,30.02,SSW,200,4.0,13.0,23,0.00,,,-99.99,Weather View 32 v60,2013-06-13 23:59:00,
2013-06-13 17:09:00,81.1,39.7,30.02,SSW,195,0.0,13.0,23,0.00,,,-99.99,Weather View 32 v60,2013-06-14 00:09:00,
2013-06-13 17:19:00,80.6,38.1,30.02,WSW,255,0.0,13.0,22,0.00,,,-99.99,Weather View 32 v60,2013-06-14 00:19:00,
2013-06-13 17:29:00,80.6,38.1,30.02,SSW,200,0.0,13.0,22,0.00,,,-99.99,Weather View 32 v60,2013-06-14 00:29:00,
2013-06-13 17:39:00,80.2,37.8,30.02,WNW,289,0.0,13.0,22,0.00,,,-99.99,Weather View 32 v60,2013-06-14 00:39:00,
2013-06-13 17:49:00,79.7,37.4,30.02,SW,231,3.0,13.0,22,0.00,,,-99.99,Weather View 32 v60,2013-06-14 00:49:00,
2013-06-13 17:59:00,79.7,37.4,30.02,SW,235,5.0,12.0,22,0.00,,,-99.99,Weather View 32 v60,2013-06-14 00:59:00,
2013-06-13 18:09:00,79.7,37.4,30.02,SW,218,5.0,12.0,22,0.00,,,-99.99,Weather View 32 v60,2013-06-14 01:09:00,
2013-06-13 18:19:00,79.9,36.4,30.02,SW,227,4.0,11.0,21,0.00,,,-99.99,Weather View 32 v60,2013-06-14 01:19:00,
2013-06-13 18:29:00,79.7,37.4,30.02,WSW,240,0.0,11.0,22,0.00,,,-99.99,Weather View 32 v60,2013-06-14 01:29:00,
2013-06-13 18:39:00,79.0,36.8,30.02,WSW,252,0.0,11.0,22,0.00,,,-99.99,Weather View 32 v60,2013-06-14 01:39:00,
2013-06-13 18:49:00,78.1,34.9,30.02,SW,225,7.0,11.0,21,0.00,,,-99.99,Weather View 32 v60,2013-06-14 01:49:00,
2013-06-13 18:59:00,77.9,35.9,30.02,SSW,202,0.0,10.0,22,0.00,,,-99.99,Weather View 32 v60,2013-06-14 01:59:00,
2013-06-13 19:09:00,77.4,35.4,30.02,WSW,254,0.0,8.0,22,0.00,,,-99.99,Weather View 32 v60,2013-06-14 02:09:00,
2013-06-13 19:19:00,76.8,35.0,30.02,WSW,251,0.0,7.0,22,0.00,,,-99.99,Weather View 32 v60,2013-06-14 02:19:00,
2013-06-13 19:29:00,76.1,35.5,30.02,NNW,329,0.0,7.0,23,0.00,,,-99.99,Weather View 32 v60,2013-06-14 02:29:00,
2013-06-13 19:39:00,75.2,35.8,30.02,NNW,338,0.0,7.0,24,0.00,,,-99.99,Weather View 32 v60,2013-06-14 02:39:00,
2013-06-13 19:49:00,74.1,37.0,30.02,WNW,299,0.0,7.0,26,0.00,,,-99.99,Weather View 32 v60,2013-06-14 02:49:00,
2013-06-13 19:59:00,73.6,38.4,30.02,WSW,240,0.0,7.0,28,0.00,,,-99.99,Weather View 32 v60,2013-06-14 02:59:00,
2013-06-13 20:09:00,72.7,39.4,30.02,WSW,239,0.0,7.0,30,0.00,,,-99.99,Weather View 32 v60,2013-06-14 03:09:00,
2013-06-13 20:19:00,71.4,39.9,30.02,WNW,284,0.0,4.0,32,0.00,,,-99.99,Weather View 32 v60,2013-06-14 03:19:00,
2013-06-13 20:29:00,69.8,40.8,30.02,WSW,255,0.0,0.0,35,0.00,,,-99.99,Weather View 32 v60,2013-06-14 03:29:00,
2013-06-13 20:39:00,68.7,42.7,30.02,SE,140,0.0,0.0,39,0.00,,,-99.99,Weather View 32 v60,2013-06-14 03:39:00,
2013-06-13 20:49:00,67.8,43.2,30.02,SW,222,0.0,0.0,41,0.00,,,-99.99,Weather View 32 v60,2013-06-14 03:49:00,
2013-06-13 20:55:00,67.8,43.2,30.02,SW,222,0.0,0.0,41,0.00,,,-99.99,Weather View 32 v60,2013-06-14 03:55:00,
2013-06-13 21:09:00,66.0,44.0,30.02,SW,216,0.0,0.0,45,0.00,,,-99.99,Weather View 32 v60,2013-06-14 04:09:00,
2013-06-13 21:19:00,65.3,44.5,30.02,SW,236,0.0,0.0,47,0.00,,,-99.99,Weather View 32 v60,2013-06-14 04:19:00,
2013-06-13 21:29:00,64.4,44.8,30.02,SW,216,0.0,0.0,49,0.00,,,-99.99,Weather View 32 v60,2013-06-14 04:29:00,
2013-06-13 21:39:00,63.7,45.2,30.02,ESE,104,0.0,0.0,51,0.00,,,-99.99,Weather View 32 v60,2013-06-14 04:39:00,
2013-06-13 21:49:00,63.0,45.5,30.02,SW,223,0.0,0.0,53,0.00,,,-99.99,Weather View 32 v60,2013-06-14 04:49:00,
2013-06-13 21:55:00,63.0,45.5,30.02,SW,223,0.0,0.0,53,0.00,,,-99.99,Weather View 32 v60,2013-06-14 04:55:00,
2013-06-13 22:09:00,62.2,45.3,30.02,SW,222,0.0,0.0,54,0.00,,,-99.99,Weather View 32 v60,2013-06-14 05:09:00,
2013-06-13 22:20:00,61.7,45.3,30.02,SSW,208,0.0,0.0,55,0.00,,,-99.99,Weather View 32 v60,2013-06-14 05:20:00,
2013-06-13 22:29:00,61.5,45.6,30.02,SSW,210,0.0,0.0,56,0.00,,,-99.99,Weather View 32 v60,2013-06-14 05:29:00,
2013-06-13 22:39:00,61.2,45.3,30.02,SW,228,0.0,0.0,56,0.00,,,-99.99,Weather View 32 v60,2013-06-14 05:39:00,
2013-06-13 22:49:00,60.6,45.3,30.02,WSW,254,0.0,0.0,57,0.00,,,-99.99,Weather View 32 v60,2013-06-14 05:49:00,
2013-06-13 22:56:00,60.6,45.3,30.02,WSW,254,0.0,0.0,57,0.00,,,-99.99,Weather View 32 v60,2013-06-14 05:56:00,
2013-06-13 23:09:00,59.9,45.5,30.02,WSW,242,0.0,0.0,59,0.00,,,-99.99,Weather View 32 v60,2013-06-14 06:09:00,
2013-06-13 23:19:00,59.7,45.8,30.02,SW,231,0.0,0.0,60,0.00,,,-99.99,Weather View 32 v60,2013-06-14 06:19:00,
2013-06-13 23:29:00,59.4,45.9,30.02,SSW,210,0.0,0.0,61,0.00,,,-99.99,Weather View 32 v60,2013-06-14 06:29:00,
2013-06-13 23:39:00,59.4,45.9,30.02,SSW,211,0.0,0.0,61,0.00,,,-99.99,Weather View 32 v60,2013-06-14 06:39:00,
2013-06-13 23:49:00,59.0,45.1,30.02,SW,227,0.0,0.0,60,0.00,,,-99.99,Weather View 32 v60,2013-06-14 06:49:00,
2013-06-13 23:56:00,59.0,45.1,30.02,SW,227,0.0,0.0,60,0.00,,,-99.99,Weather View 32 v60,2013-06-14 06:56:00,